• Join FlightAware (Why Join?)
  • Login
  • US Flag 
08:13AM EDT


 

Airport Tracker/Info


-or-


 

Live Flight TrackerFlight Track Log ✈ N2960R ✈ 15-Sep-2013 ✈ KACK - KBDR

Flight Track Log - Related Links

Times and Time Zones

All times are in EDT time to prevent confusion due to time zone crossing. See the N2960R flight status page for this flight to view local times or setup timezone preferences in your user account.

Time Position Orientation Groundspeed Altitude Reporting Facility
EDT Latitude Longitude Course Direction KTS MPH feet Rate Location/Type
05:58PM 41.2472 -70.3911 270° West  Level Estimated
05:59PM 41.2465 -70.4287 269° West  Level FlightAware Approximate
06:00PM 41.2458 -70.4662 268° West  Level FlightAware Approximate
06:01PM 41.2450 -70.5038 268° West  Level FlightAware Approximate
06:02PM 41.2442 -70.5414 268° West  Level FlightAware Approximate
06:03PM 41.2434 -70.5789 268° West  Level FlightAware Approximate
06:04PM 41.2426 -70.6165 268° West  Level FlightAware Approximate
06:05PM 41.2418 -70.6540 268° West  Level FlightAware Approximate
06:06PM 41.2410 -70.6916 268° West  Level FlightAware Approximate
06:07PM 41.2402 -70.7291 267° West  Level Estimated
06:07PM 41.4161 -70.8622 268° West 129 148 4,300  Level Boston Center
06:08PM 41.2391 -70.7667 268° West  Level FlightAware Approximate
06:08PM 41.4064 -70.9178 257° West 143 165 4,300  Level Boston Center
06:09PM 41.2379 -70.8042 268° West  Level FlightAware Approximate
06:09PM 41.4217 -70.9564 298° West 118 136 4,400  Level Boston Center
06:10PM 41.2368 -70.8417 268° West  Level FlightAware Approximate
06:10PM 41.4347 -71.0003 292° West 123 142 4,500  Level Boston Center
06:11PM 41.2357 -70.8793 268° West  Level FlightAware Approximate
06:11PM 41.4433 -71.0389 287° West 120 138 4,500  Level Boston Center
06:12PM 41.2345 -70.9168 268° West  Level FlightAware Approximate
06:12PM 41.4503 -71.0886 281° West 120 138 4,500  Level Boston Center
06:13PM 41.4592 -71.1328 285° West 126 145 4,500  Level Boston Center
06:14PM 41.4639 -71.1742 279° West 122 140 4,500  Level Boston Center
06:15PM 41.4622 -71.2214 267° West 123 142 4,500  Level Boston Center
06:16PM 41.4503 -71.2603 248° West 122 140 4,500  Level Boston Center
06:17PM 41.4422 -71.3019 256° West 119 137 4,500  Level Boston Center
06:18PM 41.4303 -71.3436 249° West 124 143 4,500  Level Boston Center
06:19PM 41.4203 -71.3881 253° West 121 139 4,500  Level Boston Center
06:20PM 41.4081 -71.4325 250° West 125 144 4,500 -60 Level Boston Center
06:21PM 41.3981 -71.4772 253° West 122 140 4,400 -60 Descending Boston Center
06:22PM 41.3881 -71.5186 252° West 124 143 4,400  Level Boston Center
06:23PM 41.3778 -71.5631 253° West 124 143 4,500  Climbing Boston Center
06:24PM 41.3617 -71.6131 247° West 123 142 4,400 -60 Descending Boston Center
06:25PM 41.3514 -71.6547 252° West 124 143 4,400  Level Boston Center
06:26PM 41.3414 -71.6964 252° West 122 140 4,500 60 Climbing Boston Center
06:27PM 41.3333 -71.7461 258° West 132 152 4,600  Climbing Boston Center
06:28PM 41.3253 -71.7906 256° West 123 142 4,500  Descending Boston Center
06:29PM 41.3150 -71.8319 252° West 122 140 4,600  Climbing Boston Center
06:30PM 41.3047 -71.8708 251° West 121 139 4,500  Descending Boston Center
06:31PM 41.2989 -71.9233 262° West 129 148 4,600  Climbing Boston Center
06:32PM 41.2950 -71.9703 264° West 123 142 4,500  Descending Boston Center
06:33PM 41.2889 -72.0203 261° West 125 144 4,600  Climbing Boston Center
06:34PM 41.2847 -72.0644 263° West 121 139 4,500  Descending Boston Center
06:36PM 41.2667 -72.1500 254° West 122 140 4,600  Climbing New York TRACON
06:37PM 41.2667 -72.1833 270° West 127 146 4,500 -60 Descending New York TRACON
06:38PM 41.2667 -72.2333 270° West 126 145 4,500  Level New York TRACON
06:39PM 41.2500 -72.2833 246° West 123 142 4,500  Level New York TRACON
06:40PM 41.2500 -72.3333 270° West 122 140 4,600  Climbing New York TRACON
06:41PM 41.2500 -72.3667 270° West 123 142 4,600 -60 Level New York TRACON
06:42PM 41.2500 -72.4167 270° West 128 147 4,500 -60 Descending New York TRACON
06:43PM 41.2500 -72.4667 270° West 123 142 4,500  Level New York TRACON
06:44PM 41.2500 -72.5167 270° West 126 145 4,500  Level New York TRACON
06:45PM 41.2333 -72.5500 236° Southwest 124 143 4,500  Level New York TRACON
06:46PM 41.2333 -72.6000 270° West 126 145 4,500  Level New York TRACON
06:47PM 41.2333 -72.6500 270° West 127 146 4,500  Level New York TRACON
06:48PM 41.2333 -72.7000 270° West 127 146 4,500  Level New York TRACON
06:49PM 41.2333 -72.7333 270° West 122 140 4,600 -60 Climbing New York TRACON
06:50PM 41.2333 -72.7833 270° West 129 148 4,400 -240 Descending New York TRACON
06:52PM 41.1943 -72.8303 222° Southwest  Level FlightAware Approximate
06:59PM 41.1500 -73.1167 270° West  Level FlightAware Approximate
07:00PM 41.1635 -73.1262 270° West  Level Estimated
07:01PM 41.1635 -73.1262 270° West  Level Estimated
07:02PM 41.1635 -73.1262 270° West  Level Estimated
07:03PM 41.1635 -73.1262 270° West  Level Estimated
07:04PM 41.1635 -73.1262 270° West  Level Estimated
07:05PM 41.1635 -73.1262 270° West  Level Estimated
07:06PM 41.1635 -73.1262 270° West  Level Estimated
07:07PM 41.1635 -73.1262 270° West  Level Estimated
07:08PM 41.1635 -73.1262 270° West  Level Estimated
07:09PM 41.1635 -73.1262 270° West  Level Estimated